Time;durP1;ratioP1;P1;durP2;ratioP2;P2;SDS_P1;SDS_P2;PMS_P1;PMS_P2;Temp;Humidity;BMP_temperature;BMP_pressure;BME280_temperature;BME280_humidity;BME280_pressure;Samples;Min_cycle;Max_cycle;Signal;HPM_P1;HPM_P2
2023/04/10 00:00:37;;;;;;;;;;;;;;;3.71;86.10;100684.44;4458749;32;33551;-89
2023/04/10 00:03:04;;;;;;;;;;;;;;;3.66;86.50;100680.56;4456130;32;33163;-91
2023/04/10 00:05:32;;;;;;;;;;;;;;;3.77;86.62;100684.06;4458320;32;33453;-87
2023/04/10 00:08:00;;;;;;;;;;;;;;;3.66;86.25;100680.56;4459074;32;34854;-89
2023/04/10 00:10:30;;;;;;;;;;;;;;;3.56;87.20;100677.09;4467325;32;34161;-89
2023/04/10 00:12:59;;;;;;;;;;;;;;;3.23;88.09;100681.97;4469088;32;33637;-89
2023/04/10 00:15:27;;;;;;;;;;;;;;;3.18;88.56;100672.97;4466323;32;33923;-87
2023/04/10 00:17:55;;;;;;;;;;;;;;;3.09;89.28;100672.16;4468727;32;33870;-86
2023/04/10 00:20:22;;;;;;;;;;;;;;;2.94;90.20;100666.59;4453538;32;34680;-89
2023/04/10 00:22:50;;;;;;;;;;;;;;;3.03;90.52;100669.06;4455484;32;33485;-90
2023/04/10 00:25:17;;;;;;;;;;;;;;;2.96;90.73;100657.41;4463513;32;33787;-87
2023/04/10 00:27:44;;;;;;;;;;;;;;;3.22;90.33;100663.91;4468271;32;34281;-87
2023/04/10 00:30:11;;;;;;;;;;;;;;;3.13;90.56;100657.22;4465137;32;33616;-87
2023/04/10 00:32:39;;;;;;;;;;;;;;;3.38;88.84;100667.06;4452440;32;34950;-90
2023/04/10 00:35:06;;;;;;;;;;;;;;;2.99;90.50;100659.31;4454160;32;33036;-90
2023/04/10 00:37:34;;;;;;;;;;;;;;;3.04;89.81;100660.63;4442594;32;32844;-90
2023/04/10 00:40:03;;;;;;;;;;;;;;;3.08;89.54;100660.13;4448601;32;33180;-88
2023/04/10 00:42:30;;;;;;;;;;;;;;;3.09;89.93;100661.91;4450955;32;32677;-90
2023/04/10 00:44:58;;;;;;;;;;;;;;;3.28;88.87;100664.44;4457038;32;33371;-88
2023/04/10 00:47:26;;;;;;;;;;;;;;;3.28;88.33;100660.22;4451008;32;32749;-89
2023/04/10 00:49:54;;;;;;;;;;;;;;;3.19;89.13;100654.31;4453020;32;33590;-89
2023/04/10 00:52:22;;;;;;;;;;;;;;;3.05;89.22;100655.66;4459270;32;33573;-87
2023/04/10 00:54:49;;;;;;;;;;;;;;;3.01;90.15;100662.91;4465477;32;33469;-86
2023/04/10 00:57:17;;;;;;;;;;;;;;;3.06;90.74;100651.44;4452784;32;33720;-87
2023/04/10 00:59:44;;;;;;;;;;;;;;;2.89;91.33;100655.94;4465892;32;34870;-87
2023/04/10 01:02:11;;;;;;;;;;;;;;;2.94;91.76;100659.81;4452231;32;34912;-87
2023/04/10 01:04:39;;;;;;;;;;;;;;;3.05;91.59;100654.72;4446763;32;32156;-90
2023/04/10 01:07:33;;;;;;;;;;;;;;;3.21;90.72;100654.44;4466674;32;32686;-88
2023/04/10 01:10:05;;;;;;;;;;;;;;;3.13;91.58;100653.78;4451016;32;34225;-89
2023/04/10 01:12:48;;;;;;;;;;;;;;;2.97;92.12;100648.94;4443937;32;32923;-92
2023/04/10 01:15:17;;;;;;;;;;;;;;;3.37;90.79;100641.31;4463243;32;33362;-86
2023/04/10 01:17:45;;;;;;;;;;;;;;;4.09;87.49;100638.06;4451320;32;33743;-88
2023/04/10 01:20:13;;;;;;;;;;;;;;;3.71;87.67;100638.31;4449949;32;33024;-86
2023/04/10 01:22:45;;;;;;;;;;;;;;;3.61;87.64;100634.81;4450216;32;34714;-86
2023/04/10 01:25:28;;;;;;;;;;;;;;;3.12;89.74;100641.72;4450524;32;32984;-88
2023/04/10 01:28:14;;;;;;;;;;;;;;;3.05;90.34;100644.50;4454653;32;33964;-89
2023/04/10 01:30:41;;;;;;;;;;;;;;;3.02;91.41;100641.69;4467364;32;33630;-87
2023/04/10 01:33:11;;;;;;;;;;;;;;;2.98;91.50;100637.06;4458084;32;34642;-86
2023/04/10 01:35:39;;;;;;;;;;;;;;;2.95;92.10;100640.22;4468245;32;34260;-87
2023/04/10 01:38:07;;;;;;;;;;;;;;;3.03;91.39;100630.66;4468932;32;34783;-87
2023/04/10 01:40:34;;;;;;;;;;;;;;;3.14;91.02;100632.50;4454365;32;32266;-87
2023/04/10 01:43:01;;;;;;;;;;;;;;;3.08;91.41;100634.53;4455340;32;33962;-87
2023/04/10 01:45:30;;;;;;;;;;;;;;;3.11;91.31;100634.78;4451831;32;33342;-87
2023/04/10 01:47:58;;;;;;;;;;;;;;;3.09;91.29;100631.19;4444381;32;32340;-87
2023/04/10 01:50:26;;;;;;;;;;;;;;;2.99;92.33;100633.72;4468547;32;34648;-86
2023/04/10 01:52:54;;;;;;;;;;;;;;;2.91;92.84;100636.50;4455141;32;33870;-86
2023/04/10 01:55:22;;;;;;;;;;;;;;;3.22;92.05;100634.06;4450770;32;32370;-86
2023/04/10 01:57:50;;;;;;;;;;;;;;;3.21;91.59;100631.41;4463551;32;33977;-87
2023/04/10 02:00:18;;;;;;;;;;;;;;;3.09;91.84;100636.31;4437609;32;32309;-87
2023/04/10 02:02:46;;;;;;;;;;;;;;;3.10;92.07;100633.00;4445389;32;32936;-87
2023/04/10 02:05:14;;;;;;;;;;;;;;;3.02;92.08;100631.44;4447952;32;33417;-86
2023/04/10 02:07:44;;;;;;;;;;;;;;;3.13;91.82;100633.28;4452358;32;33560;-86
2023/04/10 02:10:21;;;;;;;;;;;;;;;3.04;91.61;100632.47;4451462;32;34031;-86
2023/04/10 02:12:55;;;;;;;;;;;;;;;2.87;92.69;100629.31;4452844;32;33968;-86
2023/04/10 02:15:23;;;;;;;;;;;;;;;2.87;92.63;100634.44;4438776;32;31591;-86
2023/04/10 02:17:50;;;;;;;;;;;;;;;2.89;92.77;100638.03;4448209;32;34728;-86
2023/04/10 02:20:18;;;;;;;;;;;;;;;2.92;92.80;100633.19;4428304;32;33766;-86
2023/04/10 02:22:45;;;;;;;;;;;;;;;3.05;91.54;100640.28;4445695;32;34253;-85
2023/04/10 02:25:12;;;;;;;;;;;;;;;3.03;92.01;100635.78;4452549;32;34005;-87
2023/04/10 02:27:40;;;;;;;;;;;;;;;2.84;92.62;100633.25;4446676;32;34125;-88
2023/04/10 02:30:08;;;;;;;;;;;;;;;3.03;92.19;100634.13;4449299;32;33598;-88
2023/04/10 02:32:35;;;;;;;;;;;;;;;3.02;91.99;100634.00;4439545;32;33264;-89
2023/04/10 02:35:06;;;;;;;;;;;;;;;3.04;92.12;100630.81;4452645;32;33233;-89
2023/04/10 02:37:36;;;;;;;;;;;;;;;3.15;91.68;100627.53;4452298;32;34774;-89
2023/04/10 02:40:04;;;;;;;;;;;;;;;3.23;91.38;100622.19;4453310;32;34206;-89
2023/04/10 02:42:32;;;;;;;;;;;;;;;3.31;91.34;100613.50;4448933;32;33189;-89
2023/04/10 02:45:00;;;;;;;;;;;;;;;3.26;91.00;100620.75;4444765;32;32636;-89
2023/04/10 02:47:29;;;;;;;;;;;;;;;3.20;91.94;100620.22;4462332;32;34455;-89
2023/04/10 02:49:56;;;;;;;;;;;;;;;3.26;92.12;100610.53;4452977;32;33439;-89
2023/04/10 02:52:26;;;;;;;;;;;;;;;3.21;91.49;100613.47;4453849;32;32214;-89
2023/04/10 02:54:53;;;;;;;;;;;;;;;3.30;91.37;100607.50;4453809;32;33662;-89
2023/04/10 02:57:21;;;;;;;;;;;;;;;3.28;91.32;100614.13;4453657;32;34715;-89
2023/04/10 02:59:49;;;;;;;;;;;;;;;3.07;92.63;100615.72;4452403;32;33773;-89
2023/04/10 03:02:16;;;;;;;;;;;;;;;3.08;93.12;100619.19;4458930;32;34158;-89
2023/04/10 03:04:44;;;;;;;;;;;;;;;3.00;nan;100613.37;4465364;32;34013;-89
2023/04/10 03:07:12;;;;;;;;;;;;;;;3.10;93.06;100613.41;4438450;32;34336;-89
2023/04/10 03:09:39;;;;;;;;;;;;;;;3.12;92.90;100605.88;4426603;32;32242;-89
2023/04/10 03:12:06;;;;;;;;;;;;;;;3.24;91.41;100601.81;4449158;32;34996;-89
2023/04/10 03:14:34;;;;;;;;;;;;;;;3.43;90.82;100608.53;4438505;32;32556;-89
2023/04/10 03:17:01;;;;;;;;;;;;;;;3.07;91.45;100612.25;4444319;32;33611;-89
2023/04/10 03:19:29;;;;;;;;;;;;;;;3.01;92.64;100609.16;4438737;32;33344;-89
2023/04/10 03:21:56;;;;;;;;;;;;;;;3.34;90.28;100606.97;4433574;32;34576;-89
2023/04/10 03:24:24;;;;;;;;;;;;;;;3.06;91.46;100605.34;4432897;32;32119;-88
2023/04/10 03:26:51;;;;;;;;;;;;;;;3.14;90.83;100601.78;4435141;32;33452;-89
2023/04/10 03:29:19;;;;;;;;;;;;;;;3.11;90.18;100601.50;4438178;32;32974;-89
2023/04/10 03:31:47;;;;;;;;;;;;;;;3.01;90.40;100601.47;4450536;32;33613;-89
2023/04/10 03:34:15;;;;;;;;;;;;;;;2.85;92.01;100605.25;4438928;32;33249;-89
2023/04/10 03:36:42;;;;;;;;;;;;;;;2.82;92.47;100606.63;4437947;32;34859;-89
2023/04/10 03:39:10;;;;;;;;;;;;;;;2.73;93.42;100604.19;4435881;32;35024;-89
2023/04/10 03:41:37;;;;;;;;;;;;;;;2.70;94.01;100609.00;4428996;32;32558;-89
2023/04/10 03:44:04;;;;;;;;;;;;;;;2.46;95.10;100606.06;4438979;32;34117;-88
2023/04/10 03:46:33;;;;;;;;;;;;;;;2.60;94.52;100611.53;4434208;32;34627;-89
2023/04/10 03:49:00;;;;;;;;;;;;;;;2.53;94.82;100613.53;4423211;32;32878;-89
2023/04/10 03:51:28;;;;;;;;;;;;;;;2.56;94.40;100618.91;4423382;32;33597;-88
2023/04/10 03:53:55;;;;;;;;;;;;;;;2.55;95.19;100612.03;4452921;32;33207;-89
2023/04/10 03:56:23;;;;;;;;;;;;;;;2.36;95.92;100621.34;4431723;32;31994;-89
2023/04/10 03:58:51;;;;;;;;;;;;;;;2.50;96.36;100614.91;4424337;32;33786;-89
2023/04/10 04:01:19;;;;;;;;;;;;;;;2.54;95.88;100615.31;4435799;32;35242;-89
2023/04/10 04:03:50;;;;;;;;;;;;;;;2.64;96.19;100618.72;4435639;32;33584;-88
2023/04/10 04:06:18;;;;;;;;;;;;;;;2.75;95.79;100620.56;4433271;32;33912;-88
2023/04/10 04:08:45;;;;;;;;;;;;;;;2.81;95.13;100615.09;4426466;32;34984;-88
2023/04/10 04:11:16;;;;;;;;;;;;;;;3.05;93.74;100630.06;4430169;32;33591;-89
2023/04/10 04:13:44;;;;;;;;;;;;;;;3.00;93.56;100620.19;4429771;32;32881;-89
2023/04/10 04:16:12;;;;;;;;;;;;;;;2.84;93.85;100623.94;4439964;32;32778;-89
2023/04/10 04:18:41;;;;;;;;;;;;;;;2.81;94.17;100635.56;4453849;32;35139;-89
2023/04/10 04:21:09;;;;;;;;;;;;;;;3.07;93.29;100625.97;4448425;32;32310;-88
2023/04/10 04:23:37;;;;;;;;;;;;;;;2.78;93.45;100620.81;4430408;32;32086;-88
2023/04/10 04:26:05;;;;;;;;;;;;;;;2.43;95.78;100636.47;4433104;32;35418;-88
2023/04/10 04:28:33;;;;;;;;;;;;;;;2.48;95.83;100627.56;4440419;32;33737;-89
2023/04/10 04:31:01;;;;;;;;;;;;;;;2.41;96.03;100625.22;4455244;32;34496;-88
2023/04/10 04:33:32;;;;;;;;;;;;;;;2.49;95.64;100624.25;4448026;32;33359;-88
2023/04/10 04:35:59;;;;;;;;;;;;;;;2.43;96.29;100633.91;4462131;32;34086;-88
2023/04/10 04:38:28;;;;;;;;;;;;;;;2.24;97.22;100635.56;4446898;32;33198;-88
2023/04/10 04:40:56;;;;;;;;;;;;;;;2.40;97.13;100636.22;4448422;32;34055;-89
2023/04/10 04:43:26;;;;;;;;;;;;;;;2.50;95.92;100636.28;4464467;32;32904;-88
2023/04/10 04:45:54;;;;;;;;;;;;;;;2.61;96.05;100636.31;4453787;32;33446;-88
2023/04/10 04:48:24;;;;;;;;;;;;;;;2.60;96.03;100639.66;4425577;32;33305;-88
2023/04/10 04:50:52;;;;;;;;;;;;;;;2.85;95.42;100635.97;4448427;32;33860;-89
2023/04/10 04:53:19;;;;;;;;;;;;;;;2.92;93.85;100643.44;4450393;32;32236;-88
2023/04/10 04:55:47;;;;;;;;;;;;;;;2.83;94.95;100645.16;4450947;32;33693;-88
2023/04/10 04:58:15;;;;;;;;;;;;;;;2.85;95.08;100641.06;4445446;32;34343;-89
2023/04/10 05:00:42;;;;;;;;;;;;;;;2.82;94.66;100645.94;4461545;32;33632;-88
2023/04/10 05:03:10;;;;;;;;;;;;;;;2.72;95.81;100645.84;4449472;32;33775;-89
2023/04/10 05:05:37;;;;;;;;;;;;;;;2.77;95.50;100652.31;4441506;32;34161;-88
2023/04/10 05:08:07;;;;;;;;;;;;;;;2.89;95.08;100650.81;4445464;32;34837;-88
2023/04/10 05:10:35;;;;;;;;;;;;;;;2.95;94.52;100653.94;4438147;32;32009;-88
2023/04/10 05:13:06;;;;;;;;;;;;;;;3.02;94.64;100657.94;4451607;32;32234;-88
2023/04/10 05:15:34;;;;;;;;;;;;;;;3.10;94.22;100658.59;4442274;32;34109;-88
2023/04/10 05:18:02;;;;;;;;;;;;;;;3.06;94.36;100659.09;4451705;32;33874;-88
2023/04/10 05:20:33;;;;;;;;;;;;;;;3.33;93.17;100664.06;4445391;32;34347;-89
2023/04/10 05:23:00;;;;;;;;;;;;;;;3.44;93.21;100657.34;4450980;32;33384;-89
2023/04/10 05:25:28;;;;;;;;;;;;;;;3.13;94.61;100659.78;4451443;32;33775;-88
2023/04/10 05:27:55;;;;;;;;;;;;;;;3.63;92.29;100670.06;4454278;32;34752;-88
2023/04/10 05:30:24;;;;;;;;;;;;;;;5.02;86.83;100661.00;4450992;32;33665;-88
2023/04/10 05:32:52;;;;;;;;;;;;;;;5.59;82.68;100658.72;4451755;32;33957;-88
2023/04/10 05:35:19;;;;;;;;;;;;;;;5.20;84.51;100664.19;4440020;32;32438;-88
2023/04/10 05:37:47;;;;;;;;;;;;;;;5.15;84.45;100668.03;4444227;32;34053;-89
2023/04/10 05:40:18;;;;;;;;;;;;;;;4.36;88.42;100666.78;4439626;32;32349;-88
2023/04/10 05:42:48;;;;;;;;;;;;;;;4.66;89.55;100664.97;4448621;32;34203;-89
2023/04/10 05:45:17;;;;;;;;;;;;;;;4.99;88.74;100671.94;4447253;32;34101;-88
2023/04/10 05:47:44;;;;;;;;;;;;;;;5.87;83.74;100658.28;4449259;32;34150;-89
2023/04/10 05:50:12;;;;;;;;;;;;;;;6.17;82.23;100659.78;4463029;32;34972;-88
2023/04/10 05:52:41;;;;;;;;;;;;;;;5.92;83.75;100659.53;4454552;32;32834;-88
2023/04/10 05:55:08;;;;;;;;;;;;;;;6.49;81.69;100659.62;4442990;32;33983;-88
2023/04/10 05:57:37;;;;;;;;;;;;;;;6.84;79.40;100661.34;4442142;32;33465;-89
2023/04/10 06:00:05;;;;;;;;;;;;;;;6.44;81.96;100658.38;4448873;32;34680;-88
2023/04/10 06:02:39;;;;;;;;;;;;;;;6.86;80.83;100661.44;4454843;32;33769;-88
2023/04/10 06:05:08;;;;;;;;;;;;;;;6.40;82.16;100656.34;4438600;32;33861;-89
2023/04/10 06:07:36;;;;;;;;;;;;;;;5.36;87.92;100663.72;4454119;32;34188;-88
2023/04/10 06:10:03;;;;;;;;;;;;;;;6.12;86.59;100658.50;4460823;32;34093;-88
2023/04/10 06:12:32;;;;;;;;;;;;;;;6.21;84.58;100668.63;4445300;32;32674;-88
2023/04/10 06:15:01;;;;;;;;;;;;;;;5.84;87.20;100660.63;4448107;32;34005;-88
2023/04/10 06:17:29;;;;;;;;;;;;;;;6.51;85.76;100664.91;4452385;32;34289;-88
2023/04/10 06:19:59;;;;;;;;;;;;;;;7.71;79.76;100660.66;4438646;32;33681;-89
2023/04/10 06:22:27;;;;;;;;;;;;;;;6.86;81.60;100664.91;4444474;32;31677;-88
2023/04/10 06:24:54;;;;;;;;;;;;;;;6.83;83.82;100664.69;4449641;32;32964;-88
2023/04/10 06:27:22;;;;;;;;;;;;;;;7.01;81.61;100669.38;4448919;32;34028;-88
2023/04/10 06:29:50;;;;;;;;;;;;;;;7.01;83.87;100667.72;4451507;32;34223;-88
2023/04/10 06:32:19;;;;;;;;;;;;;;;7.48;81.48;100654.75;4445682;32;33346;-88
2023/04/10 06:34:47;;;;;;;;;;;;;;;7.20;81.55;100657.03;4466035;32;33883;-89
2023/04/10 06:37:14;;;;;;;;;;;;;;;6.42;86.18;100659.94;4465392;32;35014;-88
2023/04/10 06:39:42;;;;;;;;;;;;;;;6.40;87.13;100661.50;4450130;32;33932;-87
2023/04/10 06:42:09;;;;;;;;;;;;;;;7.00;85.23;100663.34;4446756;32;33876;-88
2023/04/10 06:44:39;;;;;;;;;;;;;;;7.89;81.01;100653.28;4467280;32;33898;-88
2023/04/10 06:47:09;;;;;;;;;;;;;;;7.61;80.84;100647.88;4442218;32;34231;-87
2023/04/10 06:49:36;;;;;;;;;;;;;;;7.90;81.42;100652.50;4451728;32;33736;-88
2023/04/10 06:52:04;;;;;;;;;;;;;;;8.00;81.22;100654.91;4433372;32;33139;-88
2023/04/10 06:54:31;;;;;;;;;;;;;;;8.12;80.98;100653.97;4467726;32;34584;-88
2023/04/10 06:56:58;;;;;;;;;;;;;;;8.15;81.44;100649.91;4452564;32;33219;-88
2023/04/10 06:59:26;;;;;;;;;;;;;;;8.38;79.68;100651.47;4451047;32;33459;-88
2023/04/10 07:01:53;;;;;;;;;;;;;;;8.61;79.51;100652.12;4452552;32;32721;-88
2023/04/10 07:04:20;;;;;;;;;;;;;;;8.77;78.06;100660.09;4449767;32;34235;-87
2023/04/10 07:06:48;;;;;;;;;;;;;;;9.31;75.38;100652.31;4453193;32;34621;-88
2023/04/10 07:09:15;;;;;;;;;;;;;;;8.27;78.87;100652.44;4451723;32;34725;-88
2023/04/10 07:11:42;;;;;;;;;;;;;;;8.37;78.89;100654.84;4452394;32;33171;-88
2023/04/10 07:14:10;;;;;;;;;;;;;;;8.98;77.45;100657.09;4448450;32;33988;-89
2023/04/10 07:16:37;;;;;;;;;;;;;;;8.88;77.19;100655.62;4452431;32;33138;-90
2023/04/10 07:19:04;;;;;;;;;;;;;;;8.88;76.27;100654.72;4453050;32;33355;-88
2023/04/10 07:21:32;;;;;;;;;;;;;;;9.35;74.41;100651.69;4461788;32;33097;-89
2023/04/10 07:23:59;;;;;;;;;;;;;;;9.95;73.49;100643.38;4451122;32;31940;-88
2023/04/10 07:26:26;;;;;;;;;;;;;;;9.46;74.00;100640.34;4438644;32;32508;-88
2023/04/10 07:28:53;;;;;;;;;;;;;;;9.42;74.59;100644.44;4450522;32;33536;-88
2023/04/10 07:31:21;;;;;;;;;;;;;;;9.42;75.96;100647.00;4445060;32;33391;-88
2023/04/10 07:33:49;;;;;;;;;;;;;;;9.03;75.96;100661.78;4462983;32;34079;-88
2023/04/10 07:36:16;;;;;;;;;;;;;;;9.61;73.87;100641.31;4436565;32;34247;-90
2023/04/10 07:38:44;;;;;;;;;;;;;;;10.21;72.49;100649.22;4443517;32;34711;-87
2023/04/10 07:41:11;;;;;;;;;;;;;;;10.01;72.15;100641.16;4451658;32;32992;-90
2023/04/10 07:43:38;;;;;;;;;;;;;;;10.07;72.61;100639.75;4441732;32;32561;-89
2023/04/10 07:46:06;;;;;;;;;;;;;;;10.60;69.90;100639.44;4441801;32;33055;-90
2023/04/10 07:48:33;;;;;;;;;;;;;;;11.05;68.01;100629.94;4444601;32;34560;-91
2023/04/10 07:51:01;;;;;;;;;;;;;;;10.80;68.32;100633.72;4437679;32;32060;-88
2023/04/10 07:53:28;;;;;;;;;;;;;;;10.77;68.51;100633.53;4449181;32;33793;-88
2023/04/10 07:55:56;;;;;;;;;;;;;;;10.52;70.67;100620.00;4448999;32;34799;-88
2023/04/10 07:58:23;;;;;;;;;;;;;;;11.70;65.56;100616.16;4463729;32;33994;-87
2023/04/10 08:00:50;;;;;;;;;;;;;;;11.59;67.13;100617.31;4451145;32;33869;-88
2023/04/10 08:03:18;;;;;;;19.08;11.95;;;;;;;11.46;63.87;100607.97;4453192;32;33093;-88
2023/04/10 08:05:46;;;;;;;16.73;9.10;;;;;;;12.67;61.87;100610.78;4437554;32;33780;-87
2023/04/10 08:08:14;;;;;;;;;;;;;;;14.28;54.17;100604.28;4443100;32;33966;-89
2023/04/10 08:10:41;;;;;;;;;;;;;;;15.07;51.52;100584.06;4437909;32;34091;-90
2023/04/10 08:13:08;;;;;;;;;;;;;;;14.91;44.83;100595.56;4450282;32;34263;-92
2023/04/10 08:15:36;;;;;;;;;;;;;;;14.33;46.89;100592.34;4440567;32;33622;-88
2023/04/10 08:18:03;;;;;;;;;;;;;;;15.80;44.82;100591.19;4453279;32;34893;-89
2023/04/10 08:20:35;;;;;;;;;;;;;;;17.24;44.26;100583.75;4451372;32;33432;-89
2023/04/10 08:23:03;;;;;;;;;;;;;;;18.56;40.10;100587.44;4451739;32;34119;-88
2023/04/10 08:25:46;;;;;;;13.25;8.60;;;;;;;18.18;39.97;100587.34;4451758;32;33472;-91
2023/04/10 08:28:14;;;;;;;14.35;9.35;;;;;;;17.99;39.21;100585.06;4450383;32;33718;-90
2023/04/10 08:30:41;;;;;;;17.10;9.77;;;;;;;16.22;45.27;100590.91;4436807;32;32899;-89
2023/04/10 08:33:09;;;;;;;15.73;10.27;;;;;;;17.93;41.59;100583.16;4438300;32;32508;-92
2023/04/10 08:35:36;;;;;;;16.25;10.02;;;;;;;17.95;41.15;100580.59;4452984;32;33587;-90
2023/04/10 08:38:04;;;;;;;15.98;10.73;;;;;;;17.96;41.72;100579.72;4454633;32;34041;-88
2023/04/10 08:40:43;;;;;;;16.30;11.65;;;;;;;17.47;42.14;100577.47;4453696;32;32670;-89
2023/04/10 08:43:10;;;;;;;17.98;13.52;;;;;;;17.09;42.07;100574.62;4451995;32;33790;-88
2023/04/10 08:45:40;;;;;;;18.15;12.75;;;;;;;16.65;44.71;100568.81;4436657;32;33224;-89
2023/04/10 08:48:09;;;;;;;16.50;13.20;;;;;;;16.05;45.29;100579.87;4437502;32;33762;-90
2023/04/10 08:50:41;;;;;;;14.98;11.40;;;;;;;15.94;46.64;100575.13;4451635;32;33197;-89
2023/04/10 08:53:13;;;;;;;16.73;12.68;;;;;;;15.79;43.84;100581.56;4437265;32;33209;-89
2023/04/10 08:55:42;;;;;;;16.95;12.57;;;;;;;14.82;46.88;100571.75;4423840;32;32653;-89
2023/04/10 08:58:12;;;;;;;16.67;12.27;;;;;;;13.70;48.62;100580.91;4432668;32;32749;-91
2023/04/10 09:00:40;;;;;;;15.93;11.82;;;;;;;13.55;49.43;100582.00;4432497;32;34047;-88
2023/04/10 09:03:10;;;;;;;16.20;12.05;;;;;;;14.33;47.83;100581.94;4435431;32;32304;-88
2023/04/10 09:05:38;;;;;;;16.48;11.48;;;;;;;14.21;47.39;100583.09;4430832;32;32825;-89
2023/04/10 09:08:07;;;;;;;15.23;11.20;;;;;;;14.72;47.11;100579.22;4426172;32;32922;-89
2023/04/10 09:10:34;;;;;;;16.98;12.18;;;;;;;14.46;48.40;100575.47;4434571;32;32021;-90
2023/04/10 09:13:02;;;;;;;15.15;11.10;;;;;;;14.53;47.26;100568.81;4435518;32;34021;-89
2023/04/10 09:15:30;;;;;;;14.48;10.82;;;;;;;15.21;44.99;100569.81;4433135;32;34888;-88
2023/04/10 09:18:02;;;;;;;14.98;11.60;;;;;;;16.06;42.35;100562.47;4437292;32;32870;-88
2023/04/10 09:20:31;;;;;;;14.15;10.30;;;;;;;15.03;43.35;100556.94;4449217;32;33161;-89
2023/04/10 09:22:58;;;;;;;14.85;11.63;;;;;;;15.76;45.08;100572.72;4434624;32;33324;-90
2023/04/10 09:25:32;;;;;;;15.48;11.75;;;;;;;15.54;43.62;100566.69;4427753;32;33768;-89
2023/04/10 09:28:01;;;;;;;14.70;11.00;;;;;;;16.05;42.33;100553.75;4436134;32;34014;-89
2023/04/10 09:30:38;;;;;;;15.35;11.02;;;;;;;16.63;41.25;100544.34;4431938;32;31660;-90
2023/04/10 09:33:26;;;;;;;16.90;12.13;;;;;;;15.58;41.24;100563.34;4423918;32;33140;-89
2023/04/10 09:35:58;;;;;;;15.50;12.15;;;;;;;15.34;43.87;100552.91;4435489;32;33415;-90
2023/04/10 09:38:27;;;;;;;16.05;12.43;;;;;;;16.55;42.77;100543.19;4421849;32;31673;-89
2023/04/10 09:41:07;;;;;;;13.53;10.27;;;;;;;16.26;42.02;100540.53;4432969;32;33328;-89
2023/04/10 09:43:35;;;;;;;15.65;11.63;;;;;;;16.17;41.40;100548.06;4428519;32;32819;-92
2023/04/10 09:46:03;;;;;;;15.60;11.95;;;;;;;15.90;43.54;100541.03;4436881;32;33277;-90
2023/04/10 09:48:30;;;;;;;15.30;11.70;;;;;;;15.96;42.19;100547.31;4437686;32;32123;-91
2023/04/10 09:50:58;;;;;;;12.35;9.35;;;;;;;15.65;43.85;100538.34;4437174;32;32423;-89
2023/04/10 09:53:26;;;;;;;13.93;9.45;;;;;;;15.70;41.23;100534.16;4436835;32;33090;-90
2023/04/10 09:55:55;;;;;;;12.60;9.27;;;;;;;14.77;39.66;100521.13;4437218;32;34434;-92
2023/04/10 09:58:23;;;;;;;12.57;9.35;;;;;;;14.78;40.27;100529.00;4437162;32;33758;-91
2023/04/10 10:00:51;;;;;;;11.48;8.52;;;;;;;15.82;39.13;100526.81;4449941;32;33707;-91
2023/04/10 10:03:22;;;;;;;12.05;8.82;;;;;;;14.42;39.97;100523.19;4435996;32;32170;-89
2023/04/10 10:05:50;;;;;;;11.80;8.73;;;;;;;15.69;39.64;100508.91;4447951;32;32804;-90
2023/04/10 10:08:19;;;;;;;11.25;8.52;;;;;;;15.02;39.88;100518.63;4447490;32;33417;-89
2023/04/10 10:10:53;;;;;;;11.85;8.63;;;;;;;16.22;39.59;100512.47;4462918;32;33801;-89
2023/04/10 10:13:32;;;;;;;11.20;8.52;;;;;;;16.24;39.36;100510.81;4447691;32;33928;-89
2023/04/10 10:16:33;;;;;;;10.43;7.77;;;;;;;16.50;37.77;100510.78;4443575;32;31367;-88
2023/04/10 10:19:24;;;;;;;10.88;7.87;;;;;;;16.14;36.97;100502.63;4446374;32;31304;-88
2023/04/10 10:21:52;;;;;;;11.30;8.48;;;;;;;15.91;38.38;100511.44;4458439;32;32411;-89
2023/04/10 10:24:22;;;;;;;13.10;9.30;;;;;;;15.57;39.99;100513.66;4451168;32;33584;-90
2023/04/10 10:26:50;;;;;;;10.73;8.55;;;;;;;15.64;39.56;100500.00;4464509;32;34292;-90
2023/04/10 10:29:18;;;;;;;11.05;8.55;;;;;;;15.34;40.93;100513.75;4439526;32;34097;-91
2023/04/10 10:31:46;;;;;;;11.27;8.63;;;;;;;15.56;39.67;100507.56;4448159;32;33136;-90
2023/04/10 10:34:15;;;;;;;12.20;8.82;;;;;;;16.14;36.40;100490.44;4432654;32;33062;-90
2023/04/10 10:36:42;;;;;;;12.23;8.97;;;;;;;15.96;36.55;100505.50;4457868;32;34242;-91
2023/04/10 10:39:32;;;;;;;11.68;8.60;;;;;;;15.96;38.09;100497.69;4465158;32;33889;-89
2023/04/10 10:42:38;;;;;;;10.68;7.80;;;;;;;16.18;37.34;100500.16;4443871;32;32838;-90
2023/04/10 10:45:07;;;;;;;11.70;8.35;;;;;;;15.94;37.59;100499.34;4430514;32;32746;-89
2023/04/10 10:47:40;;;;;;;11.57;8.52;;;;;;;16.06;36.45;100499.75;4440950;32;33315;-89
2023/04/10 10:50:08;;;;;;;11.52;8.63;;;;;;;15.84;37.78;100505.94;4438164;32;32464;-91
2023/04/10 10:52:47;;;;;;;11.50;8.55;;;;;;;15.48;39.67;100496.84;4461591;32;33156;-89
2023/04/10 10:55:24;;;;;;;10.70;8.52;;;;;;;16.26;36.92;100498.72;4467262;32;33116;-90
2023/04/10 10:57:54;;;;;;;12.07;9.15;;;;;;;15.98;40.41;100496.00;4467789;32;32449;-89
2023/04/10 11:00:26;;;;;;;11.52;8.77;;;;;;;15.30;41.92;100494.47;4467395;32;33111;-92
2023/04/10 11:03:11;;;;;;;12.60;9.53;;;;;;;15.66;39.79;100509.66;4450928;32;32863;-91
2023/04/10 11:05:50;;;;;;;11.98;9.27;;;;;;;15.37;43.04;100516.44;4455354;32;33105;-89
2023/04/10 11:08:46;;;;;;;12.73;9.55;;;;;;;15.63;42.27;100509.56;4460280;32;32592;-90
2023/04/10 11:11:16;;;;;;;11.48;9.07;;;;;;;15.69;41.70;100509.78;4464705;32;32748;-90
2023/04/10 11:13:50;;;;;;;12.25;8.77;;;;;;;16.78;38.90;100499.44;4442060;32;33672;-89
2023/04/10 11:16:19;;;;;;;10.78;8.42;;;;;;;16.81;37.67;100493.44;4463087;32;33197;-90
2023/04/10 11:18:50;;;;;;;11.68;8.27;;;;;;;16.50;38.61;100488.13;4467148;32;34219;-90
2023/04/10 11:22:14;;;;;;;12.18;8.57;;;;;;;16.70;38.32;100486.12;4454917;32;32865;-89
2023/04/10 11:24:51;;;;;;;9.97;7.97;;;;;;;16.11;39.27;100485.13;4408733;32;32667;-90
2023/04/10 11:27:48;;;;;;;11.50;8.88;;;;;;;15.82;39.90;100479.81;4444923;32;33193;-90
2023/04/10 11:30:29;;;;;;;11.05;8.70;;;;;;;16.34;38.49;100471.91;4431266;32;31508;-90
2023/04/10 11:32:59;;;;;;;12.27;8.67;;;;;;;17.32;37.71;100476.63;4441242;32;33178;-89
2023/04/10 11:35:27;;;;;;;12.07;8.57;;;;;;;16.93;38.20;100475.50;4450435;32;33716;-90
2023/04/10 11:38:15;;;;;;;11.57;8.45;;;;;;;16.40;38.00;100474.69;4442855;32;34000;-90
2023/04/10 11:40:53;;;;;;;12.55;9.20;;;;;;;16.48;39.82;100468.00;4456705;32;32709;-90
2023/04/10 11:43:21;;;;;;;11.85;9.02;;;;;;;15.99;40.41;100471.63;4450260;32;32456;-90
2023/04/10 11:45:49;;;;;;;11.97;9.03;;;;;;;16.55;39.71;100474.31;4456036;32;33022;-91
2023/04/10 11:48:16;;;;;;;12.07;8.90;;;;;;;15.51;41.68;100481.31;4459595;32;34204;-90
2023/04/10 11:50:44;;;;;;;12.23;8.93;;;;;;;15.28;42.98;100474.37;4461803;32;34962;-90
2023/04/10 11:53:19;;;;;;;12.52;9.00;;;;;;;15.37;42.65;100479.91;4454046;32;33393;-90
2023/04/10 11:55:46;;;;;;;12.18;9.30;;;;;;;15.63;42.69;100482.56;4455757;32;33480;-90
2023/04/10 11:58:29;;;;;;;13.50;9.20;;;;;;;15.39;43.74;100482.56;4445205;32;33280;-90
2023/04/10 12:01:00;;;;;;;11.10;8.25;;;;;;;15.43;42.76;100480.16;4449306;32;33425;-90
2023/04/10 12:03:37;;;;;;;11.25;7.95;;;;;;;15.38;43.17;100471.25;4453732;32;33864;-89
2023/04/10 12:06:07;;;;;;;11.25;8.20;;;;;;;16.15;38.73;100458.25;4460260;32;32844;-90
2023/04/10 12:08:43;;;;;;;10.65;7.65;;;;;;;15.39;41.82;100459.97;4462686;32;34192;-90
2023/04/10 12:11:11;;;;;;;10.98;8.15;;;;;;;15.22;42.32;100463.69;4455860;32;33539;-90
2023/04/10 12:13:39;;;;;;;11.48;8.23;;;;;;;14.97;43.03;100456.66;4465311;32;33728;-90
2023/04/10 12:16:08;;;;;;;12.93;8.25;;;;;;;15.37;42.80;100459.03;4459485;32;33314;-90
2023/04/10 12:18:36;;;;;;;10.90;8.27;;;;;;;15.11;43.12;100466.78;4444926;32;33437;-90
2023/04/10 12:21:05;;;;;;;10.38;8.10;;;;;;;15.02;44.94;100463.84;4451611;32;33152;-90
2023/04/10 12:23:37;;;;;;;11.38;8.90;;;;;;;15.07;44.85;100459.69;4442401;32;32640;-90
2023/04/10 12:26:16;;;;;;;11.85;9.43;;;;;;;15.45;44.72;100456.69;4448351;32;33021;-90